sensor_id;sensor_type;location;lat;lon;timestamp;P1;durP1;ratioP1;P2;durP2;ratioP2
20828;SDS011;10575;50.124;8.582;2022-09-21T00:00:23;8.25;;;3.78;;
20828;SDS011;10575;50.124;8.582;2022-09-21T00:02:50;7.55;;;4.45;;
20828;SDS011;10575;50.124;8.582;2022-09-21T00:05:17;6.60;;;4.55;;
20828;SDS011;10575;50.124;8.582;2022-09-21T00:07:43;9.40;;;4.85;;
20828;SDS011;10575;50.124;8.582;2022-09-21T00:10:08;7.30;;;4.80;;
20828;SDS011;10575;50.124;8.582;2022-09-21T00:12:34;9.05;;;4.70;;
20828;SDS011;10575;50.124;8.582;2022-09-21T00:15:03;5.95;;;4.10;;
20828;SDS011;10575;50.124;8.582;2022-09-21T00:17:30;8.65;;;4.43;;
20828;SDS011;10575;50.124;8.582;2022-09-21T00:19:56;10.55;;;5.13;;
20828;SDS011;10575;50.124;8.582;2022-09-21T00:22:21;9.80;;;5.20;;
20828;SDS011;10575;50.124;8.582;2022-09-21T00:24:47;14.52;;;5.25;;
20828;SDS011;10575;50.124;8.582;2022-09-21T00:27:12;8.20;;;5.13;;
20828;SDS011;10575;50.124;8.582;2022-09-21T00:29:38;6.88;;;3.95;;
20828;SDS011;10575;50.124;8.582;2022-09-21T00:32:04;8.90;;;4.43;;
20828;SDS011;10575;50.124;8.582;2022-09-21T00:34:29;9.60;;;3.80;;
20828;SDS011;10575;50.124;8.582;2022-09-21T00:36:56;6.85;;;4.55;;
20828;SDS011;10575;50.124;8.582;2022-09-21T00:39:21;11.52;;;4.00;;
20828;SDS011;10575;50.124;8.582;2022-09-21T00:41:47;6.70;;;4.40;;
20828;SDS011;10575;50.124;8.582;2022-09-21T00:46:49;10.95;;;4.00;;
20828;SDS011;10575;50.124;8.582;2022-09-21T00:49:16;10.35;;;4.78;;
20828;SDS011;10575;50.124;8.582;2022-09-21T00:51:43;6.70;;;4.00;;
20828;SDS011;10575;50.124;8.582;2022-09-21T00:54:11;8.00;;;4.40;;
20828;SDS011;10575;50.124;8.582;2022-09-21T00:56:41;7.28;;;4.13;;
20828;SDS011;10575;50.124;8.582;2022-09-21T00:59:08;8.82;;;4.15;;
20828;SDS011;10575;50.124;8.582;2022-09-21T01:01:37;8.50;;;3.90;;
20828;SDS011;10575;50.124;8.582;2022-09-21T01:04:02;7.90;;;4.25;;
20828;SDS011;10575;50.124;8.582;2022-09-21T01:06:30;9.70;;;4.55;;
20828;SDS011;10575;50.124;8.582;2022-09-21T01:08:57;7.38;;;4.03;;
20828;SDS011;10575;50.124;8.582;2022-09-21T01:16:47;6.47;;;4.50;;
20828;SDS011;10575;50.124;8.582;2022-09-21T01:22:34;9.85;;;4.47;;
20828;SDS011;10575;50.124;8.582;2022-09-21T01:28:07;5.55;;;3.85;;
20828;SDS011;10575;50.124;8.582;2022-09-21T01:30:39;5.63;;;4.22;;
20828;SDS011;10575;50.124;8.582;2022-09-21T01:35:44;6.95;;;3.80;;
20828;SDS011;10575;50.124;8.582;2022-09-21T01:38:17;10.13;;;6.00;;
20828;SDS011;10575;50.124;8.582;2022-09-21T01:40:49;10.98;;;5.65;;
20828;SDS011;10575;50.124;8.582;2022-09-21T01:43:22;11.80;;;5.85;;
20828;SDS011;10575;50.124;8.582;2022-09-21T01:45:51;11.85;;;6.38;;
20828;SDS011;10575;50.124;8.582;2022-09-21T01:48:19;8.68;;;5.90;;
20828;SDS011;10575;50.124;8.582;2022-09-21T01:50:55;10.93;;;6.10;;
20828;SDS011;10575;50.124;8.582;2022-09-21T01:53:33;9.75;;;5.95;;
20828;SDS011;10575;50.124;8.582;2022-09-21T01:56:26;12.45;;;6.30;;
20828;SDS011;10575;50.124;8.582;2022-09-21T01:59:05;10.45;;;6.40;;
20828;SDS011;10575;50.124;8.582;2022-09-21T02:01:40;9.02;;;5.85;;
20828;SDS011;10575;50.124;8.582;2022-09-21T02:04:11;9.05;;;6.15;;
20828;SDS011;10575;50.124;8.582;2022-09-21T02:06:37;11.35;;;6.78;;
20828;SDS011;10575;50.124;8.582;2022-09-21T02:09:06;8.80;;;6.40;;
20828;SDS011;10575;50.124;8.582;2022-09-21T02:11:32;11.07;;;6.70;;
20828;SDS011;10575;50.124;8.582;2022-09-21T02:13:58;9.77;;;6.18;;
20828;SDS011;10575;50.124;8.582;2022-09-21T02:16:33;9.50;;;5.68;;
20828;SDS011;10575;50.124;8.582;2022-09-21T02:21:53;7.55;;;5.07;;
20828;SDS011;10575;50.124;8.582;2022-09-21T02:24:31;9.32;;;5.72;;
20828;SDS011;10575;50.124;8.582;2022-09-21T02:27:04;7.97;;;4.93;;
20828;SDS011;10575;50.124;8.582;2022-09-21T02:30:02;8.25;;;5.70;;
20828;SDS011;10575;50.124;8.582;2022-09-21T02:32:46;10.45;;;5.68;;
20828;SDS011;10575;50.124;8.582;2022-09-21T02:41:18;9.23;;;5.85;;
20828;SDS011;10575;50.124;8.582;2022-09-21T02:43:49;11.35;;;5.93;;
20828;SDS011;10575;50.124;8.582;2022-09-21T02:46:41;12.70;;;6.07;;
20828;SDS011;10575;50.124;8.582;2022-09-21T02:49:16;8.85;;;6.00;;
20828;SDS011;10575;50.124;8.582;2022-09-21T02:51:46;9.20;;;5.85;;
20828;SDS011;10575;50.124;8.582;2022-09-21T02:54:16;8.25;;;5.50;;
20828;SDS011;10575;50.124;8.582;2022-09-21T02:56:44;13.10;;;6.40;;
20828;SDS011;10575;50.124;8.582;2022-09-21T02:59:11;11.23;;;6.20;;
20828;SDS011;10575;50.124;8.582;2022-09-21T03:01:38;7.40;;;5.50;;
20828;SDS011;10575;50.124;8.582;2022-09-21T03:04:04;9.30;;;6.15;;
20828;SDS011;10575;50.124;8.582;2022-09-21T03:06:29;9.05;;;6.32;;
20828;SDS011;10575;50.124;8.582;2022-09-21T03:08:55;10.40;;;6.55;;
20828;SDS011;10575;50.124;8.582;2022-09-21T03:11:22;11.63;;;6.38;;
20828;SDS011;10575;50.124;8.582;2022-09-21T03:13:48;13.73;;;7.93;;
20828;SDS011;10575;50.124;8.582;2022-09-21T03:16:13;10.27;;;7.00;;
20828;SDS011;10575;50.124;8.582;2022-09-21T03:18:39;9.35;;;7.03;;
20828;SDS011;10575;50.124;8.582;2022-09-21T03:21:07;9.80;;;6.50;;
20828;SDS011;10575;50.124;8.582;2022-09-21T03:23:33;11.80;;;6.50;;
20828;SDS011;10575;50.124;8.582;2022-09-21T03:25:59;11.15;;;7.00;;
20828;SDS011;10575;50.124;8.582;2022-09-21T03:28:24;10.63;;;6.30;;
20828;SDS011;10575;50.124;8.582;2022-09-21T03:30:50;10.85;;;6.32;;
20828;SDS011;10575;50.124;8.582;2022-09-21T03:33:17;10.18;;;6.55;;
20828;SDS011;10575;50.124;8.582;2022-09-21T03:35:44;12.77;;;6.85;;
20828;SDS011;10575;50.124;8.582;2022-09-21T03:38:09;11.35;;;7.47;;
20828;SDS011;10575;50.124;8.582;2022-09-21T03:40:35;11.48;;;6.80;;
20828;SDS011;10575;50.124;8.582;2022-09-21T03:43:01;11.40;;;6.75;;
20828;SDS011;10575;50.124;8.582;2022-09-21T03:45:27;11.82;;;6.97;;
20828;SDS011;10575;50.124;8.582;2022-09-21T03:47:56;10.68;;;6.47;;
20828;SDS011;10575;50.124;8.582;2022-09-21T03:50:23;15.13;;;6.85;;
20828;SDS011;10575;50.124;8.582;2022-09-21T03:52:49;11.85;;;6.68;;
20828;SDS011;10575;50.124;8.582;2022-09-21T03:55:15;10.43;;;6.72;;
20828;SDS011;10575;50.124;8.582;2022-09-21T03:57:41;10.85;;;6.28;;
20828;SDS011;10575;50.124;8.582;2022-09-21T04:00:07;12.07;;;6.60;;
20828;SDS011;10575;50.124;8.582;2022-09-21T04:02:35;10.93;;;6.38;;
20828;SDS011;10575;50.124;8.582;2022-09-21T04:05:01;13.05;;;6.35;;
20828;SDS011;10575;50.124;8.582;2022-09-21T04:07:30;10.30;;;6.68;;
20828;SDS011;10575;50.124;8.582;2022-09-21T04:10:03;10.80;;;6.88;;
20828;SDS011;10575;50.124;8.582;2022-09-21T04:12:30;12.30;;;7.15;;
20828;SDS011;10575;50.124;8.582;2022-09-21T04:14:58;11.98;;;7.18;;
20828;SDS011;10575;50.124;8.582;2022-09-21T04:17:23;11.80;;;7.25;;
20828;SDS011;10575;50.124;8.582;2022-09-21T04:19:49;13.38;;;7.13;;
20828;SDS011;10575;50.124;8.582;2022-09-21T04:22:14;11.88;;;7.38;;
20828;SDS011;10575;50.124;8.582;2022-09-21T04:24:40;13.15;;;7.30;;
20828;SDS011;10575;50.124;8.582;2022-09-21T04:27:06;9.70;;;6.75;;
20828;SDS011;10575;50.124;8.582;2022-09-21T04:29:35;11.55;;;7.18;;
20828;SDS011;10575;50.124;8.582;2022-09-21T04:32:01;12.38;;;6.85;;
20828;SDS011;10575;50.124;8.582;2022-09-21T04:34:27;11.85;;;7.28;;
20828;SDS011;10575;50.124;8.582;2022-09-21T04:36:55;12.07;;;7.38;;
20828;SDS011;10575;50.124;8.582;2022-09-21T04:39:20;10.63;;;6.60;;
20828;SDS011;10575;50.124;8.582;2022-09-21T04:41:47;9.90;;;6.82;;
20828;SDS011;10575;50.124;8.582;2022-09-21T04:44:14;14.18;;;7.50;;
20828;SDS011;10575;50.124;8.582;2022-09-21T04:46:39;10.38;;;6.50;;
20828;SDS011;10575;50.124;8.582;2022-09-21T04:49:06;10.75;;;6.88;;
20828;SDS011;10575;50.124;8.582;2022-09-21T04:51:32;13.07;;;7.65;;
20828;SDS011;10575;50.124;8.582;2022-09-21T04:53:58;11.85;;;7.10;;
20828;SDS011;10575;50.124;8.582;2022-09-21T04:56:24;18.08;;;7.18;;
20828;SDS011;10575;50.124;8.582;2022-09-21T04:58:50;16.20;;;7.22;;
20828;SDS011;10575;50.124;8.582;2022-09-21T05:01:15;12.15;;;7.53;;
20828;SDS011;10575;50.124;8.582;2022-09-21T05:03:41;10.55;;;7.10;;
20828;SDS011;10575;50.124;8.582;2022-09-21T05:06:06;10.40;;;7.30;;
20828;SDS011;10575;50.124;8.582;2022-09-21T05:08:33;10.77;;;6.72;;
20828;SDS011;10575;50.124;8.582;2022-09-21T05:11:18;9.48;;;6.53;;
20828;SDS011;10575;50.124;8.582;2022-09-21T05:13:44;16.33;;;7.55;;
20828;SDS011;10575;50.124;8.582;2022-09-21T05:16:10;11.85;;;8.23;;
20828;SDS011;10575;50.124;8.582;2022-09-21T05:18:35;10.90;;;6.85;;
20828;SDS011;10575;50.124;8.582;2022-09-21T05:21:01;11.73;;;7.72;;
20828;SDS011;10575;50.124;8.582;2022-09-21T05:23:29;16.80;;;10.30;;
20828;SDS011;10575;50.124;8.582;2022-09-21T05:25:55;14.75;;;8.27;;
20828;SDS011;10575;50.124;8.582;2022-09-21T05:28:21;11.32;;;7.30;;
20828;SDS011;10575;50.124;8.582;2022-09-21T05:30:52;14.43;;;8.30;;
20828;SDS011;10575;50.124;8.582;2022-09-21T05:33:22;13.10;;;8.18;;
20828;SDS011;10575;50.124;8.582;2022-09-21T05:35:58;11.25;;;7.38;;
20828;SDS011;10575;50.124;8.582;2022-09-21T05:38:34;15.40;;;8.25;;
20828;SDS011;10575;50.124;8.582;2022-09-21T05:41:00;13.18;;;7.72;;
20828;SDS011;10575;50.124;8.582;2022-09-21T05:43:26;14.63;;;8.60;;
20828;SDS011;10575;50.124;8.582;2022-09-21T05:45:55;17.92;;;8.43;;
20828;SDS011;10575;50.124;8.582;2022-09-21T05:48:27;16.92;;;8.10;;
20828;SDS011;10575;50.124;8.582;2022-09-21T05:51:07;13.32;;;9.00;;
20828;SDS011;10575;50.124;8.582;2022-09-21T05:53:42;16.75;;;8.52;;
20828;SDS011;10575;50.124;8.582;2022-09-21T05:56:48;18.55;;;9.52;;
20828;SDS011;10575;50.124;8.582;2022-09-21T06:04:57;14.02;;;8.32;;
20828;SDS011;10575;50.124;8.582;2022-09-21T06:07:25;14.63;;;8.15;;
20828;SDS011;10575;50.124;8.582;2022-09-21T06:09:50;11.57;;;7.30;;
20828;SDS011;10575;50.124;8.582;2022-09-21T06:12:16;11.95;;;7.60;;
20828;SDS011;10575;50.124;8.582;2022-09-21T06:14:42;14.35;;;7.97;;
20828;SDS011;10575;50.124;8.582;2022-09-21T06:17:08;12.63;;;7.35;;
20828;SDS011;10575;50.124;8.582;2022-09-21T06:19:33;13.45;;;6.97;;
20828;SDS011;10575;50.124;8.582;2022-09-21T06:21:59;10.32;;;7.07;;
20828;SDS011;10575;50.124;8.582;2022-09-21T06:24:24;11.27;;;7.20;;
20828;SDS011;10575;50.124;8.582;2022-09-21T06:26:50;9.63;;;6.93;;
20828;SDS011;10575;50.124;8.582;2022-09-21T06:29:15;13.82;;;6.57;;
20828;SDS011;10575;50.124;8.582;2022-09-21T06:31:47;10.88;;;6.85;;
20828;SDS011;10575;50.124;8.582;2022-09-21T06:34:14;11.10;;;6.50;;
20828;SDS011;10575;50.124;8.582;2022-09-21T06:36:39;13.95;;;7.43;;
20828;SDS011;10575;50.124;8.582;2022-09-21T06:39:05;10.70;;;5.63;;
20828;SDS011;10575;50.124;8.582;2022-09-21T06:41:30;11.23;;;6.53;;
20828;SDS011;10575;50.124;8.582;2022-09-21T06:43:56;11.73;;;6.97;;
20828;SDS011;10575;50.124;8.582;2022-09-21T06:46:21;10.70;;;6.65;;
20828;SDS011;10575;50.124;8.582;2022-09-21T06:48:48;9.93;;;6.40;;
20828;SDS011;10575;50.124;8.582;2022-09-21T06:51:14;10.32;;;5.28;;
20828;SDS011;10575;50.124;8.582;2022-09-21T06:53:39;13.82;;;6.22;;
20828;SDS011;10575;50.124;8.582;2022-09-21T06:56:06;11.32;;;6.53;;
20828;SDS011;10575;50.124;8.582;2022-09-21T06:58:33;8.30;;;5.10;;
20828;SDS011;10575;50.124;8.582;2022-09-21T07:01:03;11.18;;;5.43;;
20828;SDS011;10575;50.124;8.582;2022-09-21T07:03:29;5.90;;;4.80;;
20828;SDS011;10575;50.124;8.582;2022-09-21T07:05:55;8.13;;;4.60;;
20828;SDS011;10575;50.124;8.582;2022-09-21T07:08:21;6.53;;;4.32;;
20828;SDS011;10575;50.124;8.582;2022-09-21T07:10:47;7.72;;;4.07;;
20828;SDS011;10575;50.124;8.582;2022-09-21T07:13:13;6.90;;;3.70;;
20828;SDS011;10575;50.124;8.582;2022-09-21T07:15:40;6.28;;;3.40;;
20828;SDS011;10575;50.124;8.582;2022-09-21T07:18:09;6.03;;;3.63;;
20828;SDS011;10575;50.124;8.582;2022-09-21T07:20:38;4.40;;;3.67;;
20828;SDS011;10575;50.124;8.582;2022-09-21T07:23:15;7.80;;;3.35;;
20828;SDS011;10575;50.124;8.582;2022-09-21T07:25:44;5.18;;;3.30;;
20828;SDS011;10575;50.124;8.582;2022-09-21T07:28:11;6.55;;;3.80;;
20828;SDS011;10575;50.124;8.582;2022-09-21T07:30:38;5.07;;;3.58;;
20828;SDS011;10575;50.124;8.582;2022-09-21T07:33:04;7.60;;;3.50;;
20828;SDS011;10575;50.124;8.582;2022-09-21T07:35:31;5.13;;;3.08;;
20828;SDS011;10575;50.124;8.582;2022-09-21T07:37:57;6.75;;;2.83;;
20828;SDS011;10575;50.124;8.582;2022-09-21T07:40:23;3.95;;;3.10;;
20828;SDS011;10575;50.124;8.582;2022-09-21T07:42:49;7.20;;;2.92;;
20828;SDS011;10575;50.124;8.582;2022-09-21T07:45:15;9.32;;;3.40;;
20828;SDS011;10575;50.124;8.582;2022-09-21T07:47:40;9.13;;;2.80;;
20828;SDS011;10575;50.124;8.582;2022-09-21T07:50:06;7.75;;;3.10;;
20828;SDS011;10575;50.124;8.582;2022-09-21T07:52:32;4.47;;;3.50;;
20828;SDS011;10575;50.124;8.582;2022-09-21T07:54:58;4.78;;;2.80;;
20828;SDS011;10575;50.124;8.582;2022-09-21T07:57:23;4.38;;;3.05;;
20828;SDS011;10575;50.124;8.582;2022-09-21T08:00:08;5.95;;;3.08;;
20828;SDS011;10575;50.124;8.582;2022-09-21T08:02:34;5.85;;;3.00;;
20828;SDS011;10575;50.124;8.582;2022-09-21T08:04:59;5.68;;;3.45;;
20828;SDS011;10575;50.124;8.582;2022-09-21T08:07:25;4.43;;;2.50;;
20828;SDS011;10575;50.124;8.582;2022-09-21T08:09:52;4.05;;;2.75;;
20828;SDS011;10575;50.124;8.582;2022-09-21T08:12:18;5.10;;;2.65;;
20828;SDS011;10575;50.124;8.582;2022-09-21T08:14:44;6.60;;;2.25;;
20828;SDS011;10575;50.124;8.582;2022-09-21T08:17:11;2.63;;;2.13;;
20828;SDS011;10575;50.124;8.582;2022-09-21T08:19:37;4.88;;;2.50;;
20828;SDS011;10575;50.124;8.582;2022-09-21T08:22:03;4.10;;;1.95;;
20828;SDS011;10575;50.124;8.582;2022-09-21T08:24:28;3.08;;;1.88;;
20828;SDS011;10575;50.124;8.582;2022-09-21T08:26:55;4.10;;;2.10;;
20828;SDS011;10575;50.124;8.582;2022-09-21T08:29:23;2.88;;;1.70;;
20828;SDS011;10575;50.124;8.582;2022-09-21T08:31:49;4.35;;;1.85;;
20828;SDS011;10575;50.124;8.582;2022-09-21T08:34:14;3.13;;;1.90;;
20828;SDS011;10575;50.124;8.582;2022-09-21T08:36:40;3.30;;;2.08;;
20828;SDS011;10575;50.124;8.582;2022-09-21T08:39:09;4.55;;;1.98;;
20828;SDS011;10575;50.124;8.582;2022-09-21T08:41:42;6.40;;;1.58;;
20828;SDS011;10575;50.124;8.582;2022-09-21T08:44:17;4.43;;;2.05;;
20828;SDS011;10575;50.124;8.582;2022-09-21T08:46:53;2.70;;;1.90;;
20828;SDS011;10575;50.124;8.582;2022-09-21T08:49:27;7.95;;;1.73;;
20828;SDS011;10575;50.124;8.582;2022-09-21T08:51:58;4.78;;;2.10;;
20828;SDS011;10575;50.124;8.582;2022-09-21T08:54:28;3.22;;;2.25;;
20828;SDS011;10575;50.124;8.582;2022-09-21T08:56:56;4.68;;;2.08;;
20828;SDS011;10575;50.124;8.582;2022-09-21T08:59:21;2.50;;;1.65;;
20828;SDS011;10575;50.124;8.582;2022-09-21T09:01:59;5.32;;;1.75;;
20828;SDS011;10575;50.124;8.582;2022-09-21T09:10:36;5.82;;;1.98;;
20828;SDS011;10575;50.124;8.582;2022-09-21T09:13:14;2.13;;;1.50;;
20828;SDS011;10575;50.124;8.582;2022-09-21T09:21:30;2.22;;;1.60;;
20828;SDS011;10575;50.124;8.582;2022-09-21T09:24:03;3.97;;;1.90;;
20828;SDS011;10575;50.124;8.582;2022-09-21T09:29:21;6.70;;;2.08;;
20828;SDS011;10575;50.124;8.582;2022-09-21T09:31:55;2.42;;;0.90;;
20828;SDS011;10575;50.124;8.582;2022-09-21T09:34:24;3.03;;;1.20;;
20828;SDS011;10575;50.124;8.582;2022-09-21T09:37:00;5.00;;;1.52;;
20828;SDS011;10575;50.124;8.582;2022-09-21T09:39:34;4.65;;;2.30;;
20828;SDS011;10575;50.124;8.582;2022-09-21T09:42:15;4.20;;;1.70;;
20828;SDS011;10575;50.124;8.582;2022-09-21T09:45:15;2.88;;;1.52;;
20828;SDS011;10575;50.124;8.582;2022-09-21T09:50:40;3.08;;;1.55;;
20828;SDS011;10575;50.124;8.582;2022-09-21T09:55:44;6.28;;;2.00;;
20828;SDS011;10575;50.124;8.582;2022-09-21T10:00:59;3.65;;;1.95;;
20828;SDS011;10575;50.124;8.582;2022-09-21T10:03:26;6.50;;;1.75;;
20828;SDS011;10575;50.124;8.582;2022-09-21T10:05:52;4.30;;;1.50;;
20828;SDS011;10575;50.124;8.582;2022-09-21T10:11:09;5.50;;;1.30;;
20828;SDS011;10575;50.124;8.582;2022-09-21T10:13:36;5.53;;;1.67;;
20828;SDS011;10575;50.124;8.582;2022-09-21T10:21:21;5.03;;;1.60;;
20828;SDS011;10575;50.124;8.582;2022-09-21T10:23:52;5.70;;;1.58;;
20828;SDS011;10575;50.124;8.582;2022-09-21T10:26:23;3.13;;;1.40;;
20828;SDS011;10575;50.124;8.582;2022-09-21T10:28:58;2.40;;;1.48;;
20828;SDS011;10575;50.124;8.582;2022-09-21T10:31:25;4.95;;;1.60;;
20828;SDS011;10575;50.124;8.582;2022-09-21T10:34:03;3.53;;;1.23;;
20828;SDS011;10575;50.124;8.582;2022-09-21T10:36:37;2.13;;;1.20;;
20828;SDS011;10575;50.124;8.582;2022-09-21T10:39:16;5.30;;;1.60;;
20828;SDS011;10575;50.124;8.582;2022-09-21T10:41:46;3.30;;;1.50;;
20828;SDS011;10575;50.124;8.582;2022-09-21T10:44:15;4.53;;;1.80;;
20828;SDS011;10575;50.124;8.582;2022-09-21T10:46:43;3.55;;;1.50;;
20828;SDS011;10575;50.124;8.582;2022-09-21T10:49:23;3.10;;;1.30;;
20828;SDS011;10575;50.124;8.582;2022-09-21T10:51:53;2.38;;;1.65;;
20828;SDS011;10575;50.124;8.582;2022-09-21T10:54:22;6.47;;;2.55;;
20828;SDS011;10575;50.124;8.582;2022-09-21T10:56:52;2.88;;;1.70;;
20828;SDS011;10575;50.124;8.582;2022-09-21T10:59:23;4.30;;;1.30;;
20828;SDS011;10575;50.124;8.582;2022-09-21T11:01:52;2.85;;;1.20;;
20828;SDS011;10575;50.124;8.582;2022-09-21T11:06:52;5.45;;;1.33;;
20828;SDS011;10575;50.124;8.582;2022-09-21T11:09:28;2.97;;;1.55;;
20828;SDS011;10575;50.124;8.582;2022-09-21T11:12:13;2.42;;;1.00;;
20828;SDS011;10575;50.124;8.582;2022-09-21T11:17:32;3.10;;;1.20;;
20828;SDS011;10575;50.124;8.582;2022-09-21T11:20:04;5.10;;;1.13;;
20828;SDS011;10575;50.124;8.582;2022-09-21T11:22:43;5.03;;;1.42;;
20828;SDS011;10575;50.124;8.582;2022-09-21T11:25:34;2.38;;;1.25;;
20828;SDS011;10575;50.124;8.582;2022-09-21T11:31:17;2.47;;;1.10;;
20828;SDS011;10575;50.124;8.582;2022-09-21T11:39:13;2.05;;;1.10;;
20828;SDS011;10575;50.124;8.582;2022-09-21T11:44:34;2.90;;;1.15;;
20828;SDS011;10575;50.124;8.582;2022-09-21T11:52:40;3.42;;;1.20;;
20828;SDS011;10575;50.124;8.582;2022-09-21T11:58:06;4.25;;;1.08;;
20828;SDS011;10575;50.124;8.582;2022-09-21T12:00:43;3.45;;;1.40;;
20828;SDS011;10575;50.124;8.582;2022-09-21T12:06:25;1.95;;;1.20;;
20828;SDS011;10575;50.124;8.582;2022-09-21T12:09:31;3.47;;;1.08;;
20828;SDS011;10575;50.124;8.582;2022-09-21T12:12:04;4.53;;;1.30;;
20828;SDS011;10575;50.124;8.582;2022-09-21T12:14:53;4.88;;;1.20;;
20828;SDS011;10575;50.124;8.582;2022-09-21T12:17:31;3.88;;;1.42;;
20828;SDS011;10575;50.124;8.582;2022-09-21T12:20:33;1.48;;;1.13;;
20828;SDS011;10575;50.124;8.582;2022-09-21T12:24:12;4.00;;;1.33;;
20828;SDS011;10575;50.124;8.582;2022-09-21T12:26:19;3.13;;;0.95;;
20828;SDS011;10575;50.124;8.582;2022-09-21T12:28:51;2.40;;;1.10;;
20828;SDS011;10575;50.124;8.582;2022-09-21T12:31:27;0.73;;;0.70;;
20828;SDS011;10575;50.124;8.582;2022-09-21T12:34:11;2.47;;;1.00;;
20828;SDS011;10575;50.124;8.582;2022-09-21T12:36:52;2.47;;;1.13;;
20828;SDS011;10575;50.124;8.582;2022-09-21T12:39:29;3.28;;;1.10;;
20828;SDS011;10575;50.124;8.582;2022-09-21T12:42:09;5.38;;;1.02;;
20828;SDS011;10575;50.124;8.582;2022-09-21T12:44:50;1.90;;;0.88;;
20828;SDS011;10575;50.124;8.582;2022-09-21T12:47:21;2.85;;;0.90;;
20828;SDS011;10575;50.124;8.582;2022-09-21T12:50:52;1.58;;;0.60;;
20828;SDS011;10575;50.124;8.582;2022-09-21T12:53:20;1.42;;;0.82;;
20828;SDS011;10575;50.124;8.582;2022-09-21T12:55:56;1.17;;;0.70;;
20828;SDS011;10575;50.124;8.582;2022-09-21T12:58:38;0.75;;;0.50;;
20828;SDS011;10575;50.124;8.582;2022-09-21T13:01:18;0.65;;;0.50;;
20828;SDS011;10575;50.124;8.582;2022-09-21T13:04:09;3.70;;;0.65;;
20828;SDS011;10575;50.124;8.582;2022-09-21T13:09:33;2.10;;;0.70;;
20828;SDS011;10575;50.124;8.582;2022-09-21T13:12:06;2.75;;;0.77;;
20828;SDS011;10575;50.124;8.582;2022-09-21T13:14:40;1.60;;;0.88;;
20828;SDS011;10575;50.124;8.582;2022-09-21T13:17:18;0.60;;;0.60;;
20828;SDS011;10575;50.124;8.582;2022-09-21T13:19:54;0.88;;;0.60;;
20828;SDS011;10575;50.124;8.582;2022-09-21T13:22:24;1.00;;;0.73;;
20828;SDS011;10575;50.124;8.582;2022-09-21T13:25:04;1.65;;;0.90;;
20828;SDS011;10575;50.124;8.582;2022-09-21T13:30:47;4.95;;;0.75;;
20828;SDS011;10575;50.124;8.582;2022-09-21T13:33:36;0.93;;;0.80;;
20828;SDS011;10575;50.124;8.582;2022-09-21T13:39:01;1.77;;;0.90;;
20828;SDS011;10575;50.124;8.582;2022-09-21T13:41:36;1.70;;;0.65;;
20828;SDS011;10575;50.124;8.582;2022-09-21T13:44:36;3.97;;;0.80;;
20828;SDS011;10575;50.124;8.582;2022-09-21T13:47:02;0.90;;;0.70;;
20828;SDS011;10575;50.124;8.582;2022-09-21T13:49:32;0.82;;;0.70;;
20828;SDS011;10575;50.124;8.582;2022-09-21T13:54:49;3.90;;;1.05;;
20828;SDS011;10575;50.124;8.582;2022-09-21T14:02:45;1.52;;;0.70;;
20828;SDS011;10575;50.124;8.582;2022-09-21T14:05:25;13.40;;;8.00;;
20828;SDS011;10575;50.124;8.582;2022-09-21T14:08:45;1.90;;;1.40;;
20828;SDS011;10575;50.124;8.582;2022-09-21T14:10:40;2.45;;;0.80;;
20828;SDS011;10575;50.124;8.582;2022-09-21T14:24:37;0.80;;;0.70;;
20828;SDS011;10575;50.124;8.582;2022-09-21T14:27:48;1.52;;;0.70;;
20828;SDS011;10575;50.124;8.582;2022-09-21T14:30:21;0.50;;;0.50;;
20828;SDS011;10575;50.124;8.582;2022-09-21T14:35:24;1.20;;;0.60;;
20828;SDS011;10575;50.124;8.582;2022-09-21T14:37:53;3.25;;;0.70;;
20828;SDS011;10575;50.124;8.582;2022-09-21T14:40:25;1.42;;;0.90;;
20828;SDS011;10575;50.124;8.582;2022-09-21T14:42:55;1.75;;;0.63;;
20828;SDS011;10575;50.124;8.582;2022-09-21T14:45:40;2.97;;;0.90;;
20828;SDS011;10575;50.124;8.582;2022-09-21T14:50:51;1.60;;;0.90;;
20828;SDS011;10575;50.124;8.582;2022-09-21T14:53:31;6.55;;;1.17;;
20828;SDS011;10575;50.124;8.582;2022-09-21T14:59:14;1.73;;;0.90;;
20828;SDS011;10575;50.124;8.582;2022-09-21T15:02:09;3.83;;;1.10;;
20828;SDS011;10575;50.124;8.582;2022-09-21T15:10:20;4.97;;;1.52;;
20828;SDS011;10575;50.124;8.582;2022-09-21T15:18:30;2.25;;;1.20;;
20828;SDS011;10575;50.124;8.582;2022-09-21T15:21:01;2.55;;;0.93;;
20828;SDS011;10575;50.124;8.582;2022-09-21T15:23:37;3.95;;;1.30;;
20828;SDS011;10575;50.124;8.582;2022-09-21T15:26:06;2.08;;;1.00;;
20828;SDS011;10575;50.124;8.582;2022-09-21T15:28:35;2.78;;;2.17;;
20828;SDS011;10575;50.124;8.582;2022-09-21T15:31:03;2.72;;;1.17;;
20828;SDS011;10575;50.124;8.582;2022-09-21T15:33:32;3.03;;;1.40;;
20828;SDS011;10575;50.124;8.582;2022-09-21T15:36:06;3.90;;;1.40;;
20828;SDS011;10575;50.124;8.582;2022-09-21T15:38:33;1.42;;;1.13;;
20828;SDS011;10575;50.124;8.582;2022-09-21T15:41:00;2.70;;;1.10;;
20828;SDS011;10575;50.124;8.582;2022-09-21T15:43:26;2.53;;;1.00;;
20828;SDS011;10575;50.124;8.582;2022-09-21T15:48:38;3.28;;;1.35;;
20828;SDS011;10575;50.124;8.582;2022-09-21T15:53:53;2.03;;;1.00;;
20828;SDS011;10575;50.124;8.582;2022-09-21T15:56:28;2.78;;;0.85;;
20828;SDS011;10575;50.124;8.582;2022-09-21T15:58:58;1.38;;;0.77;;
20828;SDS011;10575;50.124;8.582;2022-09-21T16:01:37;1.80;;;0.70;;
20828;SDS011;10575;50.124;8.582;2022-09-21T16:04:06;2.22;;;0.98;;
20828;SDS011;10575;50.124;8.582;2022-09-21T16:06:36;1.73;;;0.80;;
20828;SDS011;10575;50.124;8.582;2022-09-21T16:11:50;1.20;;;0.80;;
20828;SDS011;10575;50.124;8.582;2022-09-21T16:14:17;1.90;;;0.80;;
20828;SDS011;10575;50.124;8.582;2022-09-21T16:17:03;1.50;;;0.70;;
20828;SDS011;10575;50.124;8.582;2022-09-21T16:22:15;1.75;;;0.88;;
20828;SDS011;10575;50.124;8.582;2022-09-21T16:24:59;1.75;;;1.00;;
20828;SDS011;10575;50.124;8.582;2022-09-21T16:27:26;2.80;;;1.20;;
20828;SDS011;10575;50.124;8.582;2022-09-21T16:29:54;1.77;;;1.45;;
20828;SDS011;10575;50.124;8.582;2022-09-21T16:32:27;0.85;;;0.85;;
20828;SDS011;10575;50.124;8.582;2022-09-21T16:34:53;2.08;;;0.90;;
20828;SDS011;10575;50.124;8.582;2022-09-21T16:37:46;2.45;;;0.80;;
20828;SDS011;10575;50.124;8.582;2022-09-21T16:40:11;2.28;;;1.10;;
20828;SDS011;10575;50.124;8.582;2022-09-21T16:42:38;3.28;;;1.10;;
20828;SDS011;10575;50.124;8.582;2022-09-21T16:45:06;2.03;;;1.10;;
20828;SDS011;10575;50.124;8.582;2022-09-21T16:47:40;1.92;;;1.00;;
20828;SDS011;10575;50.124;8.582;2022-09-21T16:50:10;3.00;;;2.65;;
20828;SDS011;10575;50.124;8.582;2022-09-21T16:52:36;1.95;;;1.33;;
20828;SDS011;10575;50.124;8.582;2022-09-21T16:55:02;1.50;;;1.00;;
20828;SDS011;10575;50.124;8.582;2022-09-21T16:57:27;1.70;;;1.30;;
20828;SDS011;10575;50.124;8.582;2022-09-21T16:59:53;1.83;;;1.15;;
20828;SDS011;10575;50.124;8.582;2022-09-21T17:02:19;1.40;;;0.90;;
20828;SDS011;10575;50.124;8.582;2022-09-21T17:04:44;10.13;;;6.50;;
20828;SDS011;10575;50.124;8.582;2022-09-21T17:07:12;3.47;;;1.48;;
20828;SDS011;10575;50.124;8.582;2022-09-21T17:09:42;3.20;;;1.23;;
20828;SDS011;10575;50.124;8.582;2022-09-21T17:12:11;2.00;;;1.10;;
20828;SDS011;10575;50.124;8.582;2022-09-21T17:14:38;2.78;;;1.02;;
20828;SDS011;10575;50.124;8.582;2022-09-21T17:19:42;0.93;;;0.88;;
20828;SDS011;10575;50.124;8.582;2022-09-21T17:22:10;3.03;;;1.50;;
20828;SDS011;10575;50.124;8.582;2022-09-21T17:24:42;2.60;;;1.30;;
20828;SDS011;10575;50.124;8.582;2022-09-21T17:27:09;2.58;;;1.55;;
20828;SDS011;10575;50.124;8.582;2022-09-21T17:29:36;4.30;;;1.50;;
20828;SDS011;10575;50.124;8.582;2022-09-21T17:32:05;2.22;;;1.30;;
20828;SDS011;10575;50.124;8.582;2022-09-21T17:34:34;2.10;;;1.20;;
20828;SDS011;10575;50.124;8.582;2022-09-21T17:37:00;6.43;;;1.52;;